Time;durP1;ratioP1;P1;durP2;ratioP2;P2;SDS_P1;SDS_P2;PMS_P1;PMS_P2;Temp;Humidity;BMP_temperature;BMP_pressure;BME280_temperature;BME280_humidity;BME280_pressure;Samples;Min_cycle;Max_cycle;Signal;HPM_P1;HPM_P2
2023/12/29 00:00:19;;;;;;;2.63;2.00;;;10.10;80.00;;;11.74;58.59;97658.00;5030972;28;20048;-68
2023/12/29 00:02:47;;;;;;;2.97;2.33;;;10.20;80.10;;;11.73;58.45;97653.66;5030819;28;20124;-68
2023/12/29 00:05:15;;;;;;;5.43;2.90;;;10.10;79.20;;;11.75;58.81;97659.66;5029227;28;20045;-67
2023/12/29 00:07:42;;;;;;;5.80;1.93;;;10.20;79.20;;;11.73;58.50;97643.84;5030912;28;20064;-67
2023/12/29 00:10:10;;;;;;;2.70;2.17;;;10.20;79.40;;;11.73;58.53;97645.66;5030622;28;20053;-67
2023/12/29 00:12:38;;;;;;;3.03;2.73;;;10.10;79.40;;;11.71;58.61;97643.16;5022784;28;20037;-67
2023/12/29 00:15:06;;;;;;;4.03;3.57;;;10.20;79.50;;;11.71;58.32;97645.84;5030980;28;20053;-68
2023/12/29 00:17:37;;;;;;;2.87;2.47;;;10.20;79.20;;;11.73;58.67;97645.66;5030794;28;20064;-67
2023/12/29 00:20:05;;;;;;;2.83;2.20;;;10.20;79.20;;;11.73;58.57;97642.97;5030535;28;20041;-67
2023/12/29 00:22:33;;;;;;;3.17;2.27;;;10.20;79.30;;;11.76;58.62;97643.47;5030520;28;20045;-67
2023/12/29 00:25:01;;;;;;;4.53;2.57;;;10.20;79.20;;;11.80;58.68;97634.13;5029743;28;20049;-67
2023/12/29 00:27:29;;;;;;;3.17;2.20;;;10.30;79.10;;;11.82;58.37;97642.81;5029678;28;20124;-67
2023/12/29 00:29:56;;;;;;;3.20;2.40;;;10.30;79.30;;;11.83;58.60;97641.00;5029148;28;20524;-67
2023/12/29 00:32:24;;;;;;;3.73;2.33;;;10.30;79.60;;;11.85;58.32;97641.66;5012828;28;20057;-66
2023/12/29 00:34:52;;;;;;;3.87;2.50;;;10.30;79.80;;;11.83;58.45;97647.16;5012553;28;20478;-66
2023/12/29 00:37:19;;;;;;;5.53;2.77;;;10.20;79.50;;;11.86;58.51;97651.31;5029564;28;20056;-67
2023/12/29 00:39:47;;;;;;;3.27;2.43;;;10.20;80.10;;;11.83;58.41;97649.00;5030990;28;20048;-67
2023/12/29 00:42:15;;;;;;;3.33;2.70;;;10.20;80.10;;;11.85;58.67;97652.31;5032921;28;20057;-66
2023/12/29 00:44:42;;;;;;;4.10;2.50;;;10.30;79.80;;;11.87;58.55;97660.97;5032997;28;20425;-67
2023/12/29 00:47:10;;;;;;;3.60;2.70;;;10.30;79.90;;;11.86;58.58;97655.81;5033499;28;20054;-67
2023/12/29 00:49:41;;;;;;;3.70;2.90;;;10.30;80.30;;;11.89;58.98;97651.00;5032667;28;20049;-68
2023/12/29 00:52:10;;;;;;;3.80;2.73;;;10.30;80.70;;;11.85;58.78;97654.16;5034255;28;20052;-69
2023/12/29 00:54:37;;;;;;;4.40;3.00;;;10.20;81.10;;;11.81;58.84;97657.16;5032694;28;20048;-67
2023/12/29 00:57:05;;;;;;;3.47;2.73;;;10.20;81.40;;;11.77;58.75;97650.50;5033412;28;20048;-68
2023/12/29 00:59:36;;;;;;;3.90;2.90;;;10.10;81.60;;;11.76;59.11;97640.81;5032783;28;20056;-68
2023/12/29 01:02:04;;;;;;;3.47;2.67;;;10.20;81.60;;;11.74;59.18;97648.16;5016645;28;20053;-68
2023/12/29 01:04:31;;;;;;;4.43;3.10;;;10.20;81.50;;;11.77;59.23;97653.16;5031954;28;20054;-68
2023/12/29 01:06:59;;;;;;;4.60;3.17;;;10.10;82.20;;;11.75;59.01;97652.50;5034213;28;20616;-68
2023/12/29 01:09:27;;;;;;;4.23;3.10;;;10.20;82.20;;;11.73;59.53;97658.97;5032770;28;20053;-68
2023/12/29 01:11:55;;;;;;;4.33;3.37;;;10.10;82.70;;;11.70;59.22;97654.81;5033916;28;20045;-68
2023/12/29 01:14:22;;;;;;;4.73;3.53;;;10.00;82.40;;;11.67;59.46;97654.31;5016264;28;20045;-68
2023/12/29 01:16:50;;;;;;;4.47;3.00;;;10.00;83.00;;;11.66;59.39;97656.16;5033986;28;20421;-68
2023/12/29 01:19:17;;;;;;;4.53;3.43;;;10.00;83.10;;;11.65;59.68;97651.84;5032339;28;20041;-68
2023/12/29 01:21:45;;;;;;;4.83;3.30;;;10.00;82.90;;;11.62;59.65;97642.31;5032447;28;20041;-68
2023/12/29 01:24:13;;;;;;;4.20;2.90;;;10.00;83.00;;;11.65;59.88;97643.84;5033592;28;20046;-68
2023/12/29 01:26:43;;;;;;;3.93;2.60;;;10.00;82.90;;;11.67;59.79;97649.00;5024724;28;20416;-68
2023/12/29 01:29:11;;;;;;;4.47;3.13;;;10.00;82.70;;;11.67;59.65;97644.50;5033524;28;20052;-68
2023/12/29 01:31:39;;;;;;;5.33;2.80;;;10.00;82.60;;;11.66;59.75;97637.50;5032581;28;20532;-68
2023/12/29 01:34:07;;;;;;;2.90;2.53;;;10.00;82.60;;;11.68;59.17;97634.66;5015677;28;20049;-69
2023/12/29 01:36:35;;;;;;;4.97;2.40;;;10.00;82.60;;;11.67;59.65;97633.84;5032179;28;20046;-68
2023/12/29 01:39:03;;;;;;;3.77;2.73;;;10.00;82.30;;;11.67;59.63;97625.00;5032286;28;20513;-68
2023/12/29 01:41:31;;;;;;;4.10;2.90;;;10.00;82.60;;;11.65;59.56;97617.19;5015927;28;20045;-68
2023/12/29 01:43:59;;;;;;;4.23;3.03;;;10.00;82.10;;;11.62;59.03;97622.84;5031534;28;20053;-68
2023/12/29 01:46:31;;;;;;;4.47;3.07;;;10.00;82.10;;;11.59;59.26;97623.16;5032006;28;20057;-67
2023/12/29 01:48:59;;;;;;;3.43;2.67;;;9.90;81.90;;;11.58;59.08;97622.34;5031860;28;20079;-68
2023/12/29 01:51:28;;;;;;;5.20;2.70;;;9.90;81.80;;;11.57;59.10;97627.84;5032326;28;20041;-68
2023/12/29 01:53:57;;;;;;;6.10;2.80;;;9.90;81.50;;;11.57;59.18;97625.16;5032217;28;20053;-67
2023/12/29 01:56:26;;;;;;;3.63;2.60;;;9.90;81.30;;;11.57;58.94;97631.34;5033170;28;20045;-68
2023/12/29 01:58:55;;;;;;;4.10;3.10;;;9.90;80.60;;;11.58;59.12;97624.19;5014912;28;20402;-65
2023/12/29 02:01:37;;;;;;;3.97;2.73;;;10.00;80.80;;;11.62;58.68;97634.34;5017413;28;20042;-67
2023/12/29 02:04:06;;;;;;;3.73;2.83;;;10.00;80.90;;;11.67;59.09;97638.31;5029741;28;20454;-68
2023/12/29 02:06:35;;;;;;;3.53;2.80;;;10.00;80.60;;;11.65;58.95;97627.84;5031588;28;20532;-67
2023/12/29 02:09:04;;;;;;;4.93;2.90;;;10.00;80.10;;;11.68;58.47;97613.34;5031485;28;20053;-66
2023/12/29 02:11:32;;;;;;;3.60;2.53;;;10.10;80.10;;;11.71;58.85;97619.16;5031688;28;20424;-68
2023/12/29 02:14:01;;;;;;;5.00;2.77;;;10.10;80.00;;;11.73;58.56;97616.31;5031084;28;20501;-67
2023/12/29 02:16:52;;;;;;;4.17;2.77;;;10.10;79.70;;;11.71;58.52;97619.16;5031606;28;20048;-67
2023/12/29 02:19:39;;;;;;;4.30;2.87;;;10.10;79.10;;;11.73;58.31;97616.31;5015927;28;20497;-67
2023/12/29 02:22:08;;;;;;;3.80;2.97;;;10.20;79.00;;;11.71;58.21;97611.16;5026138;28;20045;-67
2023/12/29 02:24:37;;;;;;;3.50;2.90;;;10.20;79.30;;;11.75;58.53;97619.66;5031445;28;20054;-67
2023/12/29 02:27:40;;;;;;;4.27;3.10;;;10.10;79.20;;;11.71;57.85;97621.84;5031382;28;20057;-67
2023/12/29 02:30:47;;;;;;;5.77;3.30;;;10.10;79.30;;;11.73;58.43;97621.66;5009359;28;20053;-67
2023/12/29 02:33:20;;;;;;;4.87;2.73;;;10.10;79.40;;;11.75;58.35;97619.66;5026222;28;20054;-67
2023/12/29 02:35:52;;;;;;;;;;;10.10;79.80;;;11.74;58.67;97616.16;5031494;28;20034;-66
2023/12/29 02:38:20;;;;;;;3.47;2.73;;;10.10;79.70;;;11.77;58.55;97596.31;5031078;28;19928;-67
2023/12/29 02:40:47;;;;;;;3.43;3.13;;;10.00;79.80;;;11.75;58.29;97599.16;5014298;28;20053;-67
2023/12/29 02:43:15;;;;;;;4.10;2.90;;;10.10;80.00;;;11.74;58.45;97602.81;5032050;28;20394;-67
2023/12/29 02:45:43;;;;;;;3.70;2.80;;;10.10;80.00;;;11.74;58.58;97593.97;5030852;28;20421;-67
2023/12/29 02:48:11;;;;;;;4.40;3.67;;;10.10;80.10;;;11.72;58.83;97599.47;5022749;28;20046;-67
2023/12/29 02:50:39;;;;;;;4.13;3.33;;;10.20;80.30;;;11.74;58.78;97602.81;5029785;28;20052;-67
2023/12/29 02:53:08;;;;;;;3.73;2.93;;;10.10;80.60;;;11.71;58.75;97604.97;5027260;28;20052;-67
2023/12/29 02:55:35;;;;;;;4.73;3.13;;;10.10;80.70;;;11.67;58.61;97596.50;5028688;28;20060;-67
2023/12/29 02:58:03;;;;;;;3.73;3.10;;;10.10;81.10;;;11.63;59.00;97585.34;5031975;28;20041;-68
2023/12/29 03:00:31;;;;;;;3.87;3.00;;;10.10;81.30;;;11.61;59.34;97579.34;5030023;28;20135;-66
2023/12/29 03:02:59;;;;;;;5.33;3.20;;;10.00;81.30;;;11.55;59.27;97588.00;5031653;28;20045;-66
2023/12/29 03:05:27;;;;;;;4.57;3.10;;;10.00;81.60;;;11.57;59.11;97593.16;5029743;28;20053;-66
2023/12/29 03:07:55;;;;;;;4.10;3.10;;;10.00;81.60;;;11.54;59.16;97589.03;5031994;28;20049;-66
2023/12/29 03:10:23;;;;;;;4.60;3.23;;;10.00;81.40;;;11.55;59.16;97592.50;5013636;28;20045;-66
2023/12/29 03:12:50;;;;;;;6.10;3.00;;;10.00;81.20;;;11.54;59.07;97588.19;5030253;28;20060;-66
2023/12/29 03:15:18;;;;;;;3.90;2.93;;;9.90;81.60;;;11.56;59.26;97584.34;5030590;28;20056;-66
2023/12/29 03:17:48;;;;;;;5.03;2.83;;;10.00;81.40;;;11.54;59.53;97590.88;5014461;28;20041;-66
2023/12/29 03:20:15;;;;;;;5.27;2.70;;;10.00;81.50;;;11.56;59.07;97589.69;5030386;28;20057;-67
2023/12/29 03:22:43;;;;;;;4.97;3.33;;;10.00;81.70;;;11.53;59.58;97590.00;5031497;28;20041;-66
2023/12/29 03:25:12;;;;;;;4.13;3.10;;;9.90;82.30;;;11.49;59.43;97586.00;5031119;28;20049;-66
2023/12/29 03:27:40;;;;;;;4.97;2.90;;;9.90;83.10;;;11.52;59.92;97583.03;5030717;28;20053;-66
2023/12/29 03:30:08;;;;;;;4.03;3.30;;;9.80;82.70;;;11.51;59.53;97576.00;5013738;28;20424;-67
2023/12/29 03:32:36;;;;;;;4.73;3.30;;;9.90;82.90;;;11.54;59.71;97572.19;5029820;28;20060;-66
2023/12/29 03:35:04;;;;;;;5.47;3.50;;;9.90;82.80;;;11.54;59.79;97573.03;5029968;28;20056;-66
2023/12/29 03:37:32;;;;;;;4.07;3.07;;;9.90;82.80;;;11.55;59.53;97576.50;5029916;28;20501;-66
2023/12/29 03:40:00;;;;;;;3.80;3.13;;;9.90;82.70;;;11.49;59.67;97572.69;5031062;28;20045;-66
2023/12/29 03:42:27;;;;;;;3.80;2.90;;;9.90;83.00;;;11.53;59.90;97574.00;5029571;28;20045;-66
2023/12/29 03:44:55;;;;;;;3.63;2.83;;;9.90;83.00;;;11.54;59.97;97573.03;5030039;28;20053;-66
2023/12/29 03:47:23;;;;;;;4.03;3.50;;;9.90;83.00;;;11.54;59.76;97588.19;5030117;28;20508;-66
2023/12/29 03:49:51;;;;;;;5.10;3.17;;;9.90;82.90;;;11.50;60.15;97571.69;5029559;28;20042;-66
2023/12/29 03:52:18;;;;;;;3.63;3.20;;;9.90;83.50;;;11.49;60.32;97578.00;5029729;28;20056;-66
2023/12/29 03:54:46;;;;;;;6.03;3.43;;;9.80;84.20;;;11.45;60.25;97581.19;5030944;28;20041;-67
2023/12/29 03:57:13;;;;;;;5.93;3.23;;;9.80;85.60;;;11.42;60.73;97579.72;5029839;28;20045;-68
2023/12/29 03:59:41;;;;;;;4.60;2.97;;;9.80;86.50;;;11.41;60.94;97578.84;5030655;28;20421;-68
2023/12/29 04:02:09;;;;;;;5.03;3.20;;;9.70;87.50;;;11.35;61.41;97571.53;5031007;28;20041;-68
2023/12/29 04:04:38;;;;;;;4.10;3.17;;;9.70;88.60;;;11.36;61.21;97573.22;5030429;28;20041;-68
2023/12/29 04:07:07;;;;;;;4.37;2.90;;;9.70;88.70;;;11.34;61.57;97564.56;5029866;28;20045;-69
2023/12/29 04:09:34;;;;;;;4.73;2.97;;;9.60;89.00;;;11.34;61.24;97569.03;5029427;28;20428;-68
2023/12/29 04:12:02;;;;;;;3.73;2.87;;;9.60;89.40;;;11.33;61.59;97564.72;4996789;28;20054;-68
2023/12/29 04:14:30;;;;;;;4.67;3.13;;;9.60;88.80;;;11.34;61.32;97558.38;5032985;28;20049;-68
2023/12/29 04:17:00;;;;;;;3.70;3.00;;;9.60;88.60;;;11.34;61.51;97548.56;5036201;28;20540;-68
2023/12/29 04:19:27;;;;;;;4.63;3.37;;;9.60;88.50;;;11.30;61.90;97549.91;5037297;28;20068;-68
2023/12/29 04:21:55;;;;;;;3.90;2.90;;;9.60;88.60;;;11.30;62.01;97552.56;5036040;28;20493;-68
2023/12/29 04:24:23;;;;;;;4.43;3.00;;;9.60;88.60;;;11.30;61.90;97547.25;5019535;28;20041;-68
2023/12/29 04:26:51;;;;;;;4.90;3.43;;;9.60;88.60;;;11.28;62.06;97546.56;5036708;28;20056;-68
2023/12/29 04:29:18;;;;;;;3.43;2.77;;;9.60;88.50;;;11.27;61.90;97558.22;5037049;28;20056;-68
2023/12/29 04:31:46;;;;;;;3.80;2.70;;;9.60;88.70;;;11.27;61.83;97547.56;5035829;28;20531;-68
2023/12/29 04:34:15;;;;;;;4.57;3.47;;;9.60;89.20;;;11.27;62.31;97557.41;5035918;28;20065;-68
2023/12/29 04:36:42;;;;;;;3.43;2.40;;;9.60;89.40;;;11.26;62.17;97556.53;5019804;28;20405;-68
2023/12/29 04:39:10;;;;;;;2.70;2.17;;;9.60;89.20;;;11.27;62.05;97560.88;5037097;28;20041;-68
2023/12/29 04:41:38;;;;;;;4.43;2.53;;;9.60;88.80;;;11.26;62.22;97561.06;5036788;28;20045;-69
2023/12/29 04:44:05;;;;;;;2.93;2.00;;;9.70;89.00;;;11.25;62.48;97562.06;5037082;28;20048;-68
2023/12/29 04:46:33;;;;;;;3.10;2.30;;;9.60;89.20;;;11.28;62.21;97559.03;5036149;28;20058;-68
2023/12/29 04:49:01;;;;;;;4.17;2.57;;;9.60;89.40;;;11.29;62.06;97566.88;5028684;28;20056;-68
2023/12/29 04:51:29;;;;;;;4.43;2.63;;;9.70;89.60;;;11.27;62.73;97571.56;5037488;28;20493;-68
2023/12/29 04:53:56;;;;;;;3.53;2.57;;;9.60;90.10;;;11.32;62.58;97574.56;5037627;28;20501;-68
2023/12/29 04:56:24;;;;;;;3.40;2.40;;;9.60;90.10;;;11.35;62.46;97574.19;5037430;28;20493;-68
2023/12/29 04:58:52;;;;;;;3.73;2.30;;;9.60;90.00;;;11.33;62.50;97578.88;5036571;28;20417;-68
2023/12/29 05:01:19;;;;;;;4.30;2.20;;;9.60;90.10;;;11.35;62.53;97574.19;5037001;28;20041;-68
2023/12/29 05:03:47;;;;;;;4.43;2.63;;;9.70;90.20;;;11.38;62.49;97570.34;5034553;28;20420;-68
2023/12/29 05:06:15;;;;;;;3.53;2.70;;;9.70;89.80;;;11.38;62.59;97573.88;5037514;28;20045;-67
2023/12/29 05:08:42;;;;;;;3.83;2.60;;;9.70;90.00;;;11.40;62.01;97579.06;5036556;28;20056;-66
2023/12/29 05:11:10;;;;;;;4.23;2.53;;;9.70;90.20;;;11.39;62.27;97577.38;5036911;28;20057;-65
2023/12/29 05:13:38;;;;;;;3.07;2.07;;;9.70;90.80;;;11.40;62.58;97569.22;5036531;28;20052;-64
2023/12/29 05:16:06;;;;;;;2.73;2.07;;;9.70;90.90;;;11.38;62.42;97578.34;5029062;28;20042;-64
2023/12/29 05:18:33;;;;;;;3.63;2.50;;;9.60;91.60;;;11.36;62.52;97570.56;5037113;28;20416;-64
2023/12/29 05:21:01;;;;;;;3.10;2.23;;;9.50;92.00;;;11.35;62.73;97578.72;5036729;28;20080;-64
2023/12/29 05:23:29;;;;;;;4.47;2.50;;;9.50;92.10;;;11.35;62.77;97571.53;5036203;28;20049;-64
2023/12/29 05:25:57;;;;;;;4.00;2.10;;;9.60;91.80;;;11.34;62.83;97577.03;5034983;28;20038;-62
2023/12/29 05:28:24;;;;;;;2.57;2.00;;;9.60;91.80;;;11.31;62.83;97572.88;5033409;28;20045;-63
2023/12/29 05:30:52;;;;;;;2.97;2.40;;;9.60;91.70;;;11.33;62.78;97578.88;5033326;28;20045;-61
2023/12/29 05:33:20;;;;;;;4.87;3.57;;;9.60;92.00;;;11.34;62.66;97577.88;5033779;28;20052;-59
2023/12/29 05:35:47;;;;;;;3.30;2.63;;;9.60;91.90;;;11.31;62.97;97575.53;5032116;28;20049;-59
2023/12/29 05:38:15;;;;;;;3.13;2.33;;;9.60;92.30;;;11.32;63.43;97576.38;5033555;28;20037;-59
2023/12/29 05:40:43;;;;;;;4.03;2.87;;;9.60;92.80;;;11.28;63.29;97577.69;5033452;28;20048;-59
2023/12/29 05:43:10;;;;;;;4.30;2.70;;;9.60;92.90;;;11.27;63.51;97579.53;5033077;28;20064;-59
2023/12/29 05:45:38;;;;;;;4.67;2.27;;;9.60;93.00;;;11.30;63.57;97579.22;5033597;28;20048;-61
2023/12/29 05:48:06;;;;;;;2.93;2.30;;;9.50;93.60;;;11.31;63.60;97577.38;5033272;28;20612;-59
2023/12/29 05:50:34;;;;;;;2.73;2.27;;;9.60;93.50;;;11.29;63.44;97584.72;5033198;28;20052;-58
2023/12/29 05:53:02;;;;;;;3.70;3.37;;;9.50;94.60;;;11.31;63.18;97580.88;5031554;28;20053;-60
2023/12/29 05:55:29;;;;;;;3.73;2.50;;;9.50;94.70;;;11.32;63.33;97581.69;5033185;28;20049;-59
2023/12/29 05:57:57;;;;;;;4.43;2.77;;;9.50;94.60;;;11.33;63.65;97581.53;5033312;28;20037;-59
2023/12/29 06:00:25;;;;;;;3.80;2.80;;;9.60;94.50;;;11.33;63.66;97572.72;5032952;28;20041;-59
2023/12/29 06:02:52;;;;;;;2.83;2.27;;;9.50;95.30;;;11.31;63.67;97580.03;5032849;28;20489;-59
2023/12/29 06:05:20;;;;;;;2.60;2.10;;;9.50;94.80;;;11.25;63.50;97576.22;5031226;28;20045;-60
2023/12/29 06:07:48;;;;;;;3.23;2.27;;;9.40;94.80;;;11.18;63.74;97578.69;5032700;28;20053;-60
2023/12/29 06:10:16;;;;;;;3.17;2.13;;;9.40;95.60;;;11.16;63.86;97580.69;5031502;28;20046;-61
2023/12/29 06:12:44;;;;;;;3.27;2.63;;;9.40;95.00;;;11.06;63.68;97579.22;5031804;28;20385;-64
2023/12/29 06:15:14;;;;;;;3.00;2.20;;;9.30;95.80;;;11.09;63.81;97589.53;5032540;28;20037;-59
2023/12/29 06:17:43;;;;;;;3.53;2.80;;;9.30;95.60;;;11.11;63.29;97587.53;5031333;28;20053;-59
2023/12/29 06:20:12;;;;;;;2.63;2.10;;;9.30;94.90;;;11.09;63.53;97582.38;5033265;28;20034;-59
2023/12/29 06:22:44;;;;;;;3.17;2.37;;;9.30;95.00;;;11.07;63.82;97588.84;5032478;28;20409;-60
2023/12/29 06:25:12;;;;;;;3.33;2.60;;;9.20;95.00;;;11.04;63.87;97585.53;5031727;28;20049;-59
2023/12/29 06:27:40;;;;;;;4.90;2.83;;;9.20;95.30;;;11.06;63.52;97579.22;5032590;28;20049;-60
2023/12/29 06:30:10;;;;;;;3.37;2.20;;;9.20;95.40;;;11.06;63.48;97582.69;5032121;28;20045;-65
2023/12/29 06:32:38;;;;;;;5.03;2.37;;;9.20;96.40;;;11.06;63.56;97585.38;5032394;28;20052;-66
2023/12/29 06:35:06;;;;;;;4.37;2.50;;;9.30;95.60;;;11.07;63.47;97570.22;5031735;28;20132;-66
2023/12/29 06:37:34;;;;;;;5.17;2.83;;;9.20;95.50;;;11.06;63.74;97566.72;5031567;28;20056;-66
2023/12/29 06:40:02;;;;;;;4.23;3.00;;;9.20;95.60;;;11.03;63.67;97565.22;5031986;28;20046;-67
2023/12/29 06:42:30;;;;;;;4.83;3.50;;;9.10;96.70;;;11.03;63.69;97559.03;5030897;28;20052;-68
2023/12/29 06:44:57;;;;;;;4.13;2.70;;;9.20;96.00;;;11.01;64.28;97556.56;5032233;28;20221;-68
2023/12/29 06:47:25;;;;;;;2.70;2.40;;;9.20;96.50;;;11.01;63.95;97558.38;5032270;28;20517;-68
2023/12/29 06:49:53;;;;;;;3.37;2.50;;;9.30;96.20;;;11.06;64.19;97557.91;5031845;28;20050;-68
2023/12/29 06:52:20;;;;;;;4.47;2.83;;;9.30;95.90;;;11.07;63.98;97559.53;5031923;28;20049;-69
2023/12/29 06:54:48;;;;;;;4.23;2.73;;;9.30;96.20;;;11.05;64.32;97559.75;5030742;28;20050;-69
2023/12/29 06:57:16;;;;;;;4.00;2.47;;;9.30;96.40;;;11.10;64.17;97552.06;5030854;28;20516;-68
2023/12/29 06:59:44;;;;;;;3.27;2.23;;;9.40;96.30;;;11.13;64.12;97551.75;5031620;28;20436;-69
2023/12/29 07:02:11;;;;;;;4.17;3.30;;;9.40;96.20;;;11.15;64.38;97560.41;5031555;28;20060;-69
2023/12/29 07:04:43;;;;;;;3.20;2.10;;;9.40;95.80;;;11.18;64.47;97561.88;5029647;28;20053;-70
2023/12/29 07:07:10;;;;;;;3.73;2.60;;;9.40;95.80;;;11.20;64.11;97568.69;5014146;28;20041;-69
2023/12/29 07:09:40;;;;;;;3.23;2.20;;;9.40;95.70;;;11.22;64.21;97561.41;5031552;28;20048;-69
2023/12/29 07:12:08;;;;;;;2.70;2.20;;;9.40;96.20;;;11.22;64.52;97565.88;5031399;28;20424;-69
2023/12/29 07:14:35;;;;;;;3.17;2.50;;;9.50;95.80;;;11.25;64.20;97557.56;5030519;28;20046;-69
2023/12/29 07:17:03;;;;;;;3.07;2.03;;;9.50;95.60;;;11.29;64.56;97564.22;5030294;28;20046;-69
2023/12/29 07:19:36;;;;;;;2.57;1.80;;;9.60;94.80;;;11.31;64.38;97550.72;5030287;28;20425;-69
2023/12/29 07:22:05;;;;;;;;;;;9.60;94.90;;;11.30;64.00;97557.03;5030769;28;20053;-69
2023/12/29 07:24:35;;;;;;;2.30;1.80;;;9.60;94.50;;;11.33;63.90;97554.06;5031347;28;19921;-69
2023/12/29 07:27:04;;;;;;;2.43;1.73;;;9.50;95.00;;;11.32;64.32;97555.91;5030270;28;20049;-69
2023/12/29 07:29:31;;;;;;;3.00;2.07;;;9.60;94.60;;;11.34;63.97;97556.56;5031147;28;20080;-69
2023/12/29 07:31:59;;;;;;;3.40;1.93;;;9.60;94.70;;;11.33;64.30;97556.72;5031160;28;20033;-70
2023/12/29 07:34:27;;;;;;;2.60;2.00;;;9.60;94.80;;;11.35;64.21;97560.06;5029874;28;20038;-70
2023/12/29 07:36:55;;;;;;;3.30;1.70;;;9.60;94.40;;;11.38;64.35;97555.22;5031009;28;20421;-70
2023/12/29 07:39:23;;;;;;;2.97;2.20;;;9.70;94.60;;;11.40;63.87;97547.06;5031076;28;20042;-70
2023/12/29 07:41:51;;;;;;;3.33;1.57;;;9.70;94.40;;;11.40;64.17;97547.06;5031084;28;20068;-70
2023/12/29 07:44:19;;;;;;;2.40;1.60;;;9.70;94.00;;;11.45;64.29;97550.03;5023077;28;20041;-70
2023/12/29 07:46:46;;;;;;;3.50;1.73;;;9.80;93.70;;;11.47;64.31;97550.69;5031198;28;20064;-70
2023/12/29 07:49:14;;;;;;;1.90;1.67;;;9.80;93.50;;;11.50;64.01;97554.88;5012701;28;20037;-70
2023/12/29 07:51:46;;;;;;;3.27;2.13;;;9.80;93.10;;;11.51;64.02;97553.84;5031120;28;20042;-70
2023/12/29 07:54:15;;;;;;;3.03;2.10;;;9.80;93.20;;;11.54;64.19;97561.53;5031080;28;20049;-70
2023/12/29 07:56:43;;;;;;;2.13;1.50;;;9.90;92.60;;;11.55;63.97;97568.50;5031002;28;20037;-70
2023/12/29 07:59:10;;;;;;;1.97;1.77;;;9.90;92.60;;;11.59;64.01;97569.84;5030625;28;20052;-70
2023/12/29 08:01:39;;;;;;;2.13;1.57;;;9.90;92.90;;;11.61;63.72;97565.16;5030966;28;20030;-70
2023/12/29 08:04:07;;;;;;;2.07;1.63;;;9.90;92.80;;;11.61;63.81;97563.34;5030211;28;20049;-69
2023/12/29 08:06:38;;;;;;;2.20;1.77;;;9.90;92.70;;;11.63;63.64;97569.34;5029762;28;20496;-69
2023/12/29 08:09:07;;;;;;;2.27;1.70;;;9.90;92.70;;;11.64;63.62;97562.16;5030550;28;20056;-69
2023/12/29 08:11:34;;;;;;;2.03;1.70;;;9.90;92.40;;;11.66;63.89;97570.84;5030754;28;20053;-69
2023/12/29 08:14:02;;;;;;;2.77;1.97;;;9.90;92.60;;;11.66;63.98;97567.34;5029527;28;20049;-69
2023/12/29 08:16:30;;;;;;;2.40;1.60;;;10.00;92.30;;;11.68;64.02;97571.50;5030761;28;20044;-69
2023/12/29 08:18:57;;;;;;;2.53;1.83;;;10.00;91.60;;;11.67;63.68;97569.00;5029460;28;20041;-69
2023/12/29 08:21:25;;;;;;;3.53;1.80;;;10.00;91.30;;;11.68;63.73;97570.66;5030729;28;20049;-69
2023/12/29 08:23:52;;;;;;;2.37;1.97;;;10.00;91.60;;;11.66;63.58;97570.00;5029097;28;20049;-70
2023/12/29 08:26:20;;;;;;;2.80;1.90;;;10.00;91.50;;;11.68;63.51;97574.16;5030746;28;20049;-70
2023/12/29 08:28:48;;;;;;;2.17;1.60;;;10.00;91.50;;;11.64;63.42;97575.50;5030446;28;20052;-69
2023/12/29 08:31:16;;;;;;;2.43;1.60;;;10.00;91.10;;;11.63;63.42;97574.69;5030967;28;20386;-70
2023/12/29 08:33:44;;;;;;;2.53;2.00;;;10.00;91.50;;;11.66;63.92;97584.16;5030535;28;20421;-70
2023/12/29 08:36:12;;;;;;;2.80;1.88;;;10.00;91.30;;;11.68;63.78;97587.50;5029946;28;20046;-70
2023/12/29 08:38:40;;;;;;;3.07;2.17;;;10.00;91.30;;;11.67;63.35;97574.31;5030273;28;20037;-70
2023/12/29 08:41:07;;;;;;;3.20;2.03;;;10.00;91.00;;;11.67;63.82;97583.19;5029317;28;20049;-70
2023/12/29 08:43:36;;;;;;;3.63;1.73;;;10.00;91.60;;;11.70;63.55;97587.31;5029224;28;20179;-70
2023/12/29 08:46:04;;;;;;;2.60;1.77;;;10.00;91.50;;;11.73;63.51;97589.63;5028985;28;20041;-70
2023/12/29 08:48:31;;;;;;;2.90;1.97;;;10.10;91.20;;;11.74;63.54;97585.97;5030130;28;20042;-70
2023/12/29 08:50:59;;;;;;;7.10;1.80;;;10.10;91.30;;;11.74;63.59;97586.81;5030349;28;20046;-70
2023/12/29 08:53:27;;;;;;;2.70;1.97;;;10.10;90.60;;;11.76;63.45;97581.31;5030350;28;20042;-70
2023/12/29 08:55:54;;;;;;;1.97;1.70;;;10.00;90.80;;;11.78;63.40;97593.47;5030813;28;20052;-70
2023/12/29 08:58:22;;;;;;;2.57;1.80;;;10.10;90.80;;;11.81;63.23;97589.66;5028518;28;20100;-70
2023/12/29 09:00:49;;;;;;;2.10;1.60;;;10.10;90.10;;;11.83;63.05;97592.97;5032370;28;20519;-70
2023/12/29 09:03:17;;;;;;;2.17;1.60;;;10.10;90.10;;;11.86;63.40;97592.63;5033912;28;20049;-70
2023/12/29 09:05:45;;;;;;;2.03;1.50;;;10.20;90.20;;;11.89;63.36;97592.31;5034182;28;20048;-70
2023/12/29 09:08:12;;;;;;;2.63;2.07;;;10.20;90.30;;;11.91;63.10;97590.31;5034166;28;20045;-70
2023/12/29 09:10:40;;;;;;;3.05;2.63;;;10.30;90.10;;;11.96;63.23;97601.31;5031738;28;20045;-70
2023/12/29 09:13:09;;;;;;;2.50;1.67;;;10.30;90.00;;;11.96;62.75;97603.13;5033798;28;20041;-70
2023/12/29 09:15:37;;;;;;;2.40;1.60;;;10.30;90.50;;;11.97;63.28;97604.81;5033951;28;20049;-69
2023/12/29 09:18:06;;;;;;;2.37;1.90;;;10.30;90.40;;;12.00;62.97;97609.81;5033996;28;20048;-70
2023/12/29 09:20:34;;;;;;;4.03;2.57;;;10.30;90.30;;;12.01;62.84;97600.78;5032510;28;20049;-71
2023/12/29 09:23:03;;;;;;;3.40;1.63;;;10.30;90.50;;;12.00;62.88;97601.81;5033507;28;20060;-69
2023/12/29 09:25:31;;;;;;;2.57;1.90;;;10.30;90.30;;;12.02;62.92;97605.13;5034133;28;20485;-69
2023/12/29 09:27:58;;;;;;;3.22;2.15;;;10.30;91.20;;;12.04;62.81;97603.13;5033657;28;20053;-69
2023/12/29 09:30:26;;;;;;;3.17;2.00;;;10.30;90.30;;;12.07;62.97;97607.28;5031724;28;20067;-69
2023/12/29 09:32:54;;;;;;;2.55;2.03;;;10.30;90.70;;;12.10;62.99;97615.78;5033479;28;20045;-69
2023/12/29 09:35:22;;;;;;;3.17;2.07;;;10.30;90.60;;;12.08;63.03;97609.78;5033561;28;20049;-68
2023/12/29 09:37:50;;;;;;;3.13;2.00;;;10.30;91.10;;;12.10;62.92;97618.44;5033425;28;20045;-68
2023/12/29 09:40:18;;;;;;;3.37;2.20;;;10.30;90.90;;;12.10;62.81;97618.44;5031882;28;20046;-69
2023/12/29 09:42:47;;;;;;;3.60;2.17;;;10.40;90.70;;;12.10;63.08;97623.78;5033179;28;20453;-68
2023/12/29 09:45:22;;;;;;;3.58;1.85;;;10.40;90.60;;;12.10;63.09;97625.63;5032019;28;20045;-69
2023/12/29 09:47:52;;;;;;;2.90;2.07;;;10.40;90.50;;;12.10;62.60;97623.78;5032394;28;20053;-68
2023/12/29 09:50:20;;;;;;;2.63;1.87;;;10.40;90.20;;;12.10;62.92;97629.13;5031832;28;20050;-68
2023/12/29 09:52:52;;;;;;;4.68;2.08;;;10.40;90.20;;;12.09;63.09;97630.09;5031709;28;20041;-69
2023/12/29 09:55:20;;;;;;;2.70;2.10;;;10.40;90.40;;;12.08;63.21;97636.47;5033223;28;20067;-68
2023/12/29 09:57:48;;;;;;;2.77;1.93;;;10.40;90.80;;;12.08;63.34;97644.47;5031992;28;20037;-68
2023/12/29 10:00:18;;;;;;;2.93;2.27;;;10.40;90.90;;;12.07;63.29;97641.97;5031556;28;20041;-68
2023/12/29 10:02:48;;;;;;;3.23;2.00;;;10.40;90.90;;;12.08;63.61;97635.59;5031700;28;20048;-68
2023/12/29 10:05:15;;;;;;;3.17;2.13;;;10.30;91.40;;;12.09;63.38;97638.13;5031812;28;20048;-68
2023/12/29 10:07:47;;;;;;;2.77;2.03;;;10.40;91.50;;;12.11;63.33;97640.63;5032857;28;20048;-70
2023/12/29 10:10:16;;;;;;;7.37;4.80;;;10.40;91.80;;;12.14;63.52;97627.75;5032581;28;20057;-68
2023/12/29 10:12:48;;;;;;;6.50;3.13;;;10.40;91.80;;;12.15;63.48;97616.06;5030729;28;20053;-68
2023/12/29 10:15:37;;;;;;;2.67;1.93;;;10.40;92.00;;;12.16;63.24;97608.91;5032643;28;20049;-68
2023/12/29 10:18:56;;;;;;;5.03;3.25;;;10.50;91.80;;;12.16;63.36;97614.25;5032706;28;20054;-68
2023/12/29 10:21:40;;;;;;;4.03;2.33;;;10.50;92.10;;;12.13;63.35;97610.06;4972922;28;20523;-68
2023/12/29 10:24:17;;;;;;;4.18;2.28;;;10.40;92.20;;;12.12;63.02;97603.09;4959006;28;20050;-68
2023/12/29 10:26:45;;;;;;;4.73;2.37;;;10.40;92.10;;;12.12;63.37;97596.94;5010419;28;20061;-68
2023/12/29 10:29:13;;;;;;;2.87;2.00;;;10.40;92.30;;;12.10;63.23;97591.75;5031048;28;20052;-68